Hauptseite
METAR-TAF:

METAR-TAF

Flughäfen :

Heeresflugplatz Fritzlar

Fritzlar, Deutschland

Breite: 51-07N, Länge: 009-17E, Höhe: 172 m

Beobachtung

Neuester Wetterbericht von vor 1 Stunde und 4 Minuten, um 15:20 UTC
Wind 2 kt aus Ost
Temperatur 6°C
Luftfeuchtigkeit 70%
Luftdruck 1021 hPa
Sichtweite 10 km oder mehr
Durchbrochene Bewölkung in der Höhe von 22000 ft

METAR: ETHF 281520Z 08002KT 9999 BKN220 06/01 Q1021 BLU+BLU+

Zeit: 17:24 (16:24 UTC)

Prognose

Neuester Wetterbericht von vor 2 Stunden und 4 Minuten, um 14:20 UTC
Gültige Prognose vom 28 um 15 UTC bis 28 um 24 UTC
Wind 3 kt aus unterschiedlichen Richtungen
Sichtweite 10 km oder mehr
Leicht bewölkt in der Höhe von 1000 ft
Durchbrochene Bewölkung in der Höhe von 28000 ft

TAF: ETHF 281420Z 2815/2824 VRB03KT 9999 NSW FEW010 BKN280

Wetterbeobachtungen und Prognosen von mehr als 4000 Flughäfen (METAR und TAF Bericht).

Die verfügbaren Stationen werden durch gelbe und rote Markierungen auf der Karte dargestellt.

Führen Sie die Maus auf sie, um den Namen der Station zu sehen.

Darauf klicken, um die Beobachtung von Wetterbeobachtungen und Prognosen zu sehen.

Um die Karte zu ändern : klicken Sie auf den grünen Tasten mit einem schwarzen Kreuz Zum Vergrößern, auf den grünen Button mit einem Gedankenstrich zu verkleinern, oder auf die grünen Pfeile für benachbarte Karten.


METAR-TAF: